Tiempo atmosférico en la estación meteorológica de Talarn, Lleida (799 m.)



Fecha
DESCASC
Temp. máxima en grados centígrados (hora)
DESCASC
Temp. mínima en grados centígrados (hora)
DESCASC
Temp. media en grados centígrados
DESCASC
Racha de viento máxima en m/sg (hora)
DESCASC
Velocidad máxima media en intervalos de 10 minutos(hora)
DESCASC
Precipitaciones diarias en mm
DESCASC
Precipitaciones de 00:00 a 06:00 en mm
DESCASC
Precipitaciones de 06:00 a 12:00 en mm
DESCASC
Precipitaciones de 12:00 a 18:00 en mm
DESCASC
Precipitaciones de 18:00 a 24:00 en mm
DESCASC
19-09-2019 27.9 (15:40) 14.1 (07:20) 21 11.11 (18:10) 7.78 (18:10) 0.2 0 0 0 0.2
18-09-2019 29.8 (16:00) 16.4 (07:00) 23.1 10.56 (16:40) 6.39 (16:20) 0 0 0 0 0
17-09-2019 30.3 (16:20) 15.5 (00:00) 22.9 8.89 (18:40) 5.56 (18:40) 0 0 0 0 0
16-09-2019 29 (16:10) 14.5 (00:00) 21.8 8.61 (17:20) 5.83 (17:20) 0 0 0 0 0
15-09-2019 28.9 (16:20) 14.2 (00:00) 21.5 8.89 (00:40) 6.67 (00:40) 1.4 1.4 0 0 0
14-09-2019 27.9 (16:10) 12.8 (00:00) 20.3 8.61 (17:30) 5.56 (17:00) 2 1.8 0 0 0.2
13-09-2019 26.2 (17:50) 13.6 (00:00) 19.9 7.5 (23:40) 4.17 (23:40) 0.4 0 0 0 0.4
12-09-2019 28.5 (16:10) 11.6 (00:00) 20.1 8.89 (02:40) 4.72 (02:40) 0 0 0 0 0
11-09-2019 24.4 (15:30) 12.2 (00:00) 18.3 12.22 (13:30) 6.39 (03:30) 0 0 0 0 0
10-09-2019 18.1 (15:50) 12 (09:30) 15.1 11.39 (11:00) 6.39 (10:00) 8 8 0 0 0
09-09-2019 25.5 (16:00) 11 (06:30) 18.3 10 (16:10) 5.56 (15:40) 0 0 0 0 0
08-09-2019 24.5 (15:30) 9.9 (00:00) 17.2 9.17 (14:40) 6.39 (14:40) 0 0 0 0 0
07-09-2019 25.2 (15:50) 9.4 (00:00) 17.3 8.61 (16:00) 5.83 (20:20) 0 0 0 0 0
06-09-2019 24.4 (15:20) 9.4 (00:00) 16.9 10 (14:50) 5.83 (14:50) 0 0 0 0 0
05-09-2019 26.5 (15:10) 13.4 (00:00) 19.9 11.94 (22:50) 7.78 (22:50) 0 0 0 0 0
04-09-2019 29.8 (16:30) 13.2 (00:00) 21.5 9.72 (14:20) 5.83 (14:40) 0 0 0 0 0
03-09-2019 28.5 (16:20) 11.4 (00:00) 19.9 8.06 (15:40) 5 (18:00) 0 0 0 0 0
02-09-2019 25.7 (16:20) 16.3 (00:00) 21 8.61 (17:10) 5.56 (17:00) 0 0 0 0 0
01-09-2019 29.1 (16:10) 16 (00:00) 22.6 9.72 (17:20) 6.67 (17:20) 1.4 0 0 1.4 0
31-08-2019 28.3 (14:30) 13.9 (00:00) 21.1 10.56 (16:30) 6.39 (15:30) 0 0 0 0 0
30-08-2019 33.1 (15:20) 15.5 (00:00) 24.3 11.94 (18:00) 7.78 (18:00) 11 0 0 1 10
29-08-2019 31.7 (17:00) 16.9 (00:00) 24.3 11.67 (20:50) 6.67 (20:50) 0 0 0 0 0
28-08-2019 30.3 (16:10) 14.7 (00:00) 22.5 8.33 (17:40) 5 (18:20) 0 0 0 0 0
27-08-2019 27.4 (15:40) 16.2 (00:00) 21.8 11.11 (02:20) 6.94 (13:50) 1.2 0 1.2 0 0
26-08-2019 29.6 (15:00) 17 (00:00) 23.3 7.78 (16:00) 4.72 (20:00) 0 0 0 0 0
25-08-2019 32.3 (16:30) 16.9 (00:00) 24.6 8.33 (20:30) 5.28 (20:30) 0 0 0 0 0
24-08-2019 32 (15:40) 16.2 (00:00) 24.1 9.44 (14:30) 6.11 (14:40) 0 0 0 0 0
23-08-2019 30.6 (16:00) 15.4 (00:00) 23 8.33 (15:00) 4.44 (14:40) 0 0 0 0 0
22-08-2019 29.2 (16:30) 15.9 (00:00) 22.6 9.17 (15:50) 5.28 (15:50) 0 0 0 0 0
21-08-2019 28.2 (16:50) 12 (00:00) 20.1 7.22 (18:00) 4.72 (17:50) 0 0 0 0 0

Gráficas

Temp. máximas Temp. mínimas Temp. medias Precipitaciones Rachas de viento máximas Velocidades máximas media en intervalos de 10 minutos

Datos horarios

Fecha y hora oficial Temperatura (ºC) Velocidad del viento (km/h) Dirección del viento Racha (km/h) Dirección de racha Precipitación (mm) Presión (hPa) Tendencia (hPa) Humedad (%)
2019-09-19 23:00:00 17.2 3 Sur 18 Norte 0 927.9 1.6 70
2019-09-19 22:00:00 16.7 6 Noroeste 11 Norte 0 927.9 2.2 76
2019-09-19 21:00:00 16.4 6 Noroeste 12 Noroeste 0.2 927.3 2 81
2019-09-19 20:00:00 19.3 5 Sur 30 Sudoeste 0 926.3 1.5 57
2019-09-19 19:00:00 20.7 16 Sudoeste 40 Norte 0 925.7 0.6 51
2019-09-19 18:00:00 20 24 Norte 39 Norte 0 925.3 -0.5 56
2019-09-19 17:00:00 27.5 15 Sur 30 Sur 0 924.8 -1.6 31
2019-09-19 16:00:00 27.3 13 Sur 27 Sur 0 925.1 -1.8 31
2019-09-19 15:00:00 26.1 17 Sur 26 Sudeste 0 925.8 -1.5 34
2019-09-19 14:00:00 25.4 14 Sur 21 Sur 0 926.4 -1 38
2019-09-19 13:00:00 23.5 7 Sur 18 Sur 0 926.9 -0.3 43
2019-09-19 12:00:00 22.4 9 Sur 18 Sur 0 927.3 0.3 48
2019-09-19 11:00:00 20.3 6 Sur 14 Sur 0 927.4 0.9 54
2019-09-19 10:00:00 19.1 5 Sudeste 8 Sur 0 927.2 0.8 58
2019-09-19 09:00:00 15.9 6 Norte 8 Norte 0 927 0.9 66
2019-09-19 08:00:00 14.8 3 Sudeste 7 Norte 0 926.5 0.5 67
2019-09-19 07:00:00 15.3 3 Sudoeste 11 Norte 0 926.4 0.1 65
2019-09-19 06:00:00 14.6 9 Norte 11 Norte 0 926.1 -0.4 68
2019-09-19 05:00:00 15.4 5 Sur 9 Sur 0 926 -0.6 63
2019-09-19 04:00:00 15.6 3 Sudeste 7 Norte 0 926.3 -0.3 62
2019-09-19 03:00:00 16.3 3 Norte 6 Sudoeste 0 926.5 0 60
2019-09-19 02:00:00 17.7 4 Sur 10 Noroeste 0 926.6 0.2 55
2019-09-19 01:00:00 17.3 3 Norte 8 Sudoeste 0 926.6 0.5 57
2019-09-19 00:00:00 19.1 4 Norte 12 Norte 0 926.5 0.9 54
2019-09-18 23:00:00 20.5 6 Norte 25 Norte 0 926.4 1.6 47
2019-09-18 22:00:00 21.5 9 Norte 26 Oeste 0 926.1 2 47
2019-09-18 21:00:00 22.7 19 Oeste 30 Oeste 0 925.6 1.8 43
2019-09-18 20:00:00 23.9 16 Sudoeste 30 Sudoeste 0 924.8 1.1 39
2019-09-18 19:00:00 25.9 21 Sudoeste 32 Sudoeste 0 924.1 0 32
2019-09-18 18:00:00 28.5 16 Sudoeste 35 Sudoeste 0 923.8 -0.8 28
2019-09-18 17:00:00 29 21 Sudoeste 38 Sur 0 923.7 -1.4 27
2019-09-18 16:00:00 29.6 20 Sur 32 Sur 0 924.1 -1.3 29
2019-09-18 15:00:00 27.5 10 Sur 26 Sur 0 924.6 -1.1 32
2019-09-18 14:00:00 28.6 13 Sur 24 Sur 0 925.1 -0.4 32
2019-09-18 13:00:00 27 9 Sur 14 Sudeste 0 925.4 0.1 38
2019-09-18 12:00:00 24.7 7 Sur 14 Sur 0 925.7 0.9 49
2019-09-18 11:00:00 23 5 Sur 10 Sur 0 925.5 1.3 56
2019-09-18 10:00:00 21 4 Sur 8 Sur 0 925.3 1.3 59
2019-09-18 09:00:00 19.7 3 Sur 6 Noroeste 0 924.8 0.7 64
2019-09-18 08:00:00 16.9 4 Noroeste 6 Oeste 0 924.2 0.2 69
2019-09-18 07:00:00 17.1 3 Norte 5 Norte 0 924 -0.3 70
2019-09-18 06:00:00 17.8 2 Oeste 4 Sudoeste 0 924.1 -1 65
2019-09-18 05:00:00 18.6 5 Sudoeste 10 Nordeste 0 924 -1.2 64
2019-09-18 04:00:00 18.5 3 Noroeste 15 Norte 0 924.3 -0.9 62
2019-09-18 03:00:00 20.2 3 Oeste 15 Noroeste 0 925.1 -0.4 58
2019-09-18 02:00:00 21.3 8 Norte 15 Norte 0 925.2 0 52
2019-09-18 01:00:00 19.5 8 Norte 10 Norte 0 925.2 0.7 57
2019-09-18 00:00:00 22.2 6 Norte 12 Noroeste 0 925.5 1.6 49
2019-09-17 23:00:00 21.6 4 Oeste 6 Noroeste 0 925.2 1.7 50
2019-09-17 22:00:00 22 3 Noroeste 18 Noroeste 0 924.5 1.1 49
2019-09-17 21:00:00 23.4 16 Noroeste 22 Noroeste 0 923.9 0.1 45
2019-09-15 18:00:00 26 18 Sur 26 Sur 0 929.7 -0.7 34
2019-09-15 17:00:00 27.7 14 Sur 31 Sur 0 929.5 -1.6 31
2019-09-15 16:00:00 28.4 19 Sur 28 Sur 0 929.9 -1.6 28
2019-09-15 15:00:00 27.8 14 Sur 23 Sur 0 930.4 -1.4 31
2019-09-15 14:00:00 26.6 10 Sur 16 Sur 0 931.1 -0.8 32
2019-09-15 13:00:00 23.4 6 Sudoeste 12 Sudoeste 0 931.5 -0.5 61
2019-09-15 12:00:00 20.7 8 Sur 15 Sur 0 931.8 0.3 74
2019-09-15 11:00:00 20.4 5 Sudoeste 10 Sur 0 931.9 0.2 73
2019-09-15 10:00:00 17.5 5 Sur 9 Sur 0 932 0.2 80
2019-09-15 09:00:00 16 2 Norte 6 Noroeste 0 931.5 -0.3 86
2019-09-15 08:00:00 15 4 Sur 8 Norte 0 931.7 -0.1 88
2019-09-15 07:00:00 14.2 9 Norte 11 Norte 0 931.8 -0.6 94
2019-09-15 06:00:00 15.4 11 Norte 19 Nordeste 0 931.8 -1.5 85
2019-09-15 05:00:00 17 6 Nordeste 23 Nordeste 0 931.8 -1 70
2019-09-15 04:00:00 16 9 Noroeste 19 Sur 0 932.4 -0.5 81
2019-09-15 03:00:00 15.6 8 Norte 15 Noroeste 0 933.3 -0.7 89
2019-09-15 02:00:00 16.4 10 Noroeste 21 Oeste 0 932.8 -0.4 80
2019-09-15 01:00:00 17.2 14 Noroeste 32 Norte 1.4 932.9 -0.1 76
2019-09-15 00:00:00 18.2 4 Sudeste 14 Norte 0.2 934 1.5 68
2019-09-14 23:00:00 19.9 11 Sur 21 Norte 0 933.2 1 49
2019-09-14 22:00:00 21.2 7 Sur 14 Sur 0 933 0.8 42
2019-09-14 21:00:00 21.7 4 Sudoeste 9 Sudoeste 0 932.5 0.5 40
2019-09-14 20:00:00 22.9 4 Oeste 19 Sur 0 932.2 0.1 36
2019-09-14 19:00:00 25.1 10 Sur 24 Sudeste 0 932.2 0.1 32
2019-09-14 18:00:00 25.9 14 Sur 31 Sudeste 0 932 -1.2 30
2019-09-14 17:00:00 25.8 20 Sur 30 Sur 0 932.1 -1.8 30
2019-09-14 16:00:00 26.9 7 Sudeste 18 Sur 0 932.1 -2.7 32
2019-09-14 15:00:00 26.3 9 Sur 22 Sur 0 933.2 -1.8 35
2019-09-14 14:00:00 26.1 10 Sur 18 Sur 0 933.9 -0.6 37
2019-09-14 13:00:00 23.1 5 Sudoeste 14 Sur 0 934.8 0.5 54
2019-09-14 12:00:00 23.1 3 Oeste 14 Sur 0 935 0.8 46
2019-09-14 11:00:00 20.6 8 Sudoeste 17 Norte 0 934.5 0.9 63
2019-09-14 10:00:00 17.3 6 Sur 10 Sur 0 934.3 0.6 79
2019-09-14 09:00:00 15.8 2 Sudoeste 12 Noroeste 0 934.2 0.6 79
2019-09-14 08:00:00 14.3 3 Sudoeste 9 Sur 0 933.6 -0.3 78
2019-09-14 07:00:00 14.4 8 Noroeste 15 Norte 0 933.7 -0.5 70
2019-09-14 06:00:00 14.5 5 Sudoeste 9 Sur 0 933.6 -0.7 77
2019-09-14 05:00:00 14.4 5 Sudoeste 17 Norte 0 933.9 -1.2 82
2019-09-14 04:00:00 13.8 13 Noroeste 17 Noroeste 0 934.2 -2.1 86
2019-09-14 03:00:00 14.2 5 Oeste 12 Norte 0 934.3 -3.9 83
2019-09-14 02:00:00 15.1 12 Oeste 21 Norte 0 935.1 -1.4 80
2019-09-14 01:00:00 14.8 12 Norte 18 Norte 1.8 936.3 1 86
2019-09-14 00:00:00 16.2 4 Nordeste 27 Sur 0.4 938.2 3.2 72
2019-09-13 23:00:00 19.7 5 Sur 13 Norte 0 936.5 2.2 40
2019-09-13 22:00:00 20.3 3 Sudoeste 10 Norte 0 935.3 1.4 36
2019-09-13 21:00:00 21.3 4 Sur 13 Sur 0 935 1.2 35
2019-09-13 20:00:00 22.3 6 Oeste 17 Sudoeste 0 934.3 -0.1 37
2019-09-13 19:00:00 24.3 9 Sudoeste 14 Sudoeste 0 933.9 -1.6 33
2019-09-13 18:00:00 25.9 7 Este 16 Nordeste 0 933.8 -2.3 28
2019-09-13 17:00:00 25.3 6 Este 14 Sudoeste 0 934.4 -2.2 29
2019-09-13 16:00:00 24.4 6 Sudoeste 17 Sur 0 935.5 -2 32
2019-09-13 15:00:00 23.5 4 Este 15 Sur 0 936.1 -0.3 39
2019-09-13 14:00:00 23.3 7 Sudeste 20 Sudeste 0 936.6 0.8 35
2019-09-13 13:00:00 20.8 9 Norte 13 Norte 0 937.5 1.8 52
2019-09-13 12:00:00 20.3 4 Sudoeste 13 Sur 0 936.4 0.9 53
2019-09-13 11:00:00 20.4 6 Sur 19 Norte 0 935.8 0.5 51
2019-09-13 10:00:00 18 7 Noroeste 16 Norte 0 935.7 -0.3 53
2019-09-13 09:00:00 16 11 Norte 15 Norte 0 935.5 -0.6 63
2019-09-13 08:00:00 14 6 Norte 10 Norte 0 935.3 -0.8 69
2019-09-13 07:00:00 14.8 3 Sudoeste 6 Norte 0 936 -0.1 65
2019-09-13 06:00:00 15.5 4 Sur 10 Noroeste 0 936.1 -0.3 65
2019-09-13 05:00:00 14.4 5 Noroeste 10 Noroeste 0 936.1 -0.9 69
2019-09-13 04:00:00 16.5 3 Este 15 Noroeste 0 936.1 -0.7 61
2019-09-13 03:00:00 17.2 14 Norte 18 Norte 0 936.4 0 60
2019-09-13 02:00:00 18.4 7 Norte 14 Norte 0 937 1 54
2019-09-13 01:00:00 18.6 5 Norte 11 Norte 0 936.8 1.1 53
2019-09-13 00:00:00 19.8 5 Sudeste 9 Sudeste 0 936.4 1.1 48
2019-09-12 23:00:00 18.7 9 Noroeste 13 Noroeste 0 936 0.7 53
2019-09-12 22:00:00 21.4 5 Sudoeste 23 Norte 0 935.7 1.1 45
2019-09-12 21:00:00 20.4 14 Noroeste 18 Noroeste 0 935.3 0.9 48
2019-09-12 20:00:00 23.5 6 Este 17 Sudeste 0 935.3 0.9 39
2019-09-12 19:00:00 26.8 5 Sur 15 Sur 0 934.6 -0.2 26
2019-09-12 18:00:00 27.6 11 Sur 18 Sur 0 934.4 -0.9 24
2019-09-12 17:00:00 28.2 12 Sur 21 Sur 0 934.4 -1.3 23
2019-09-12 16:00:00 28.3 13 Sur 23 Sur 0 934.8 -1.7 25
2019-09-12 15:00:00 26.8 12 Sur 23 Sur 0 935.3 -1.8 27
2019-09-12 14:00:00 25.8 11 Sur 20 Sur 0 935.7 -1.3 30
2019-09-12 13:00:00 24.6 11 Sur 17 Sur 0 936.5 -0.1 37
2019-09-12 12:00:00 21.6 6 Sur 14 Sur 0 937.1 1.5 45
2019-09-12 11:00:00 20.1 5 Sudeste 13 Sur 0 937 1.8 49
2019-09-12 10:00:00 17.3 5 Sudoeste 9 Sur 0 936.6 1.8 58
2019-09-12 09:00:00 16 3 Sur 8 Sudoeste 0 935.6 0.9 54
2019-09-12 08:00:00 13.1 3 Nordeste 12 Norte 0 935.2 0.7 63
2019-09-12 07:00:00 13.3 0 Calma 5 Norte 0 934.8 0.5 62
2019-09-12 06:00:00 13.5 0 Calma 9 Noroeste 0 934.7 0.9 63
2019-09-12 05:00:00 14.5 5 Sudoeste 8 Sudoeste 0 934.5 0.8 61
2019-09-12 04:00:00 16.3 6 Norte 31 Nordeste 0 934.3 0.8 49
2019-09-12 03:00:00 17.4 11 Nordeste 32 Norte 0 933.8 0.4 46
2019-09-12 02:00:00 15.6 9 Norte 17 Norte 0 933.7 0.2 59
2019-09-12 01:00:00 15.8 10 Norte 13 Norte 0 933.5 0.5 64
2019-09-12 00:00:00 16.2 8 Norte 14 Noroeste 0 933.4 1.1 63
2019-09-11 23:00:00 16.7 5 Nordeste 12 Norte 0 933.5 2.6 61
2019-09-11 22:00:00 18.1 5 Norte 14 Este 0 933 2.4 56
2019-09-11 21:00:00 19.8 5 Este 18 Nordeste 0 932.3 2.1 49
2019-09-11 20:00:00 21.4 9 Nordeste 22 Este 0 930.9 0.9 36
2019-09-11 19:00:00 23.3 11 Nordeste 23 Este 0 930.6 0.8 32
2019-09-11 18:00:00 23.9 6 Este 25 Este 0 930.2 0.5 32
2019-09-11 17:00:00 23.1 13 Este 28 Nordeste 0 930 0.3 32
2019-09-11 16:00:00 22.5 15 Nordeste 32 Nordeste 0 929.8 0.3 33
2019-09-11 15:00:00 23.1 22 Nordeste 36 Este 0 929.7 0.6 32
2019-09-11 14:00:00 21.4 15 Este 44 Nordeste 0 929.7 1.2 35
2019-09-11 13:00:00 20.8 20 Nordeste 37 Nordeste 0 929.5 2 34
2019-09-11 12:00:00 19 21 Nordeste 39 Nordeste 0 929.1 2.7 38
2019-09-11 11:00:00 18.8 15 Nordeste 27 Este 0 928.5 3.6 39
2019-09-11 10:00:00 18.5 14 Nordeste 27 Este 0 927.5 2.9 41
2019-09-11 09:00:00 15.9 4 Sudoeste 21 Sudeste 0 926.4 2.7 47
2019-09-11 08:00:00 15.3 8 Nordeste 27 Nordeste 0 924.9 1.8 48
2019-09-11 07:00:00 13.9 8 Norte 16 Nordeste 0 924.6 1.6 50
2019-09-11 06:00:00 13.4 12 Norte 24 Nordeste 0 923.7 0.9 53
2019-09-11 05:00:00 15.1 12 Norte 26 Nordeste 0 923.1 0.7 45
2019-09-11 04:00:00 15.7 14 Nordeste 42 Nordeste 0 923 0.9 42
2019-09-11 03:00:00 15.5 18 Nordeste 42 Nordeste 0 922.8 0.9 43
2019-09-11 02:00:00 14.7 11 Nordeste 18 Nordeste 0 922.4 0.8 45
2019-09-11 01:00:00 13.1 10 Noroeste 16 Oeste 0 922.1 0.6 48
2019-09-11 00:00:00 12.8 7 Noroeste 18 Norte 0 921.9 0.8 50
2019-09-10 23:00:00 12.7 12 Noroeste 15 Noroeste 0 921.6 1.2 52
2019-09-10 22:00:00 13.4 4 Noroeste 19 Nordeste 0 921.5 1.9 48
2019-09-10 21:00:00 14.2 10 Nordeste 22 Nordeste 0 921.1 1.7 41
2019-09-10 20:00:00 14.7 9 Este 19 Nordeste 0 920.4 1.9 39
2019-09-10 19:00:00 15 12 Nordeste 19 Sudeste 0 919.6 1.4 39
2019-09-10 18:00:00 15.5 7 Sur 18 Sur 0 919.4 1 56
2019-09-10 17:00:00 17 10 Sudeste 19 Sudoeste 0 918.5 -0.1 54
2019-09-10 16:00:00 17.6 8 Sur 21 Sur 0 918.2 -0.3 50
2019-09-10 15:00:00 16.6 6 Sudoeste 15 Sur 0 918.4 0.1 51
2019-09-10 14:00:00 14.2 8 Sur 17 Este 0 918.6 0.5 64
2019-09-10 13:00:00 14.9 6 Nordeste 19 Norte 0 918.5 0.6 47
2019-09-10 12:00:00 15.1 7 Nordeste 41 Este 0 918.3 1 45
2019-09-10 11:00:00 14.3 21 Nordeste 41 Nordeste 0 918.1 1 48
2019-09-10 10:00:00 12.3 23 Nordeste 38 Norte 0 917.9 1.2 54
2019-09-10 09:00:00 12.4 5 Norte 15 Nordeste 0 917.3 0.9 86
2019-09-10 08:00:00 12.4 4 Nordeste 10 Noroeste 0 917.1 0.3 94
2019-09-10 07:00:00 12.5 5 Oeste 17 Sur 0 916.7 -1.1 95
2019-09-10 06:00:00 12.9 5 Nordeste 15 Nordeste 2.6 916.4 -1.4 94
2019-09-10 05:00:00 13.8 8 Noroeste 22 Sudoeste 4.4 916.8 -2.3 81
2019-09-10 04:00:00 15.8 8 Sudoeste 15 Sudoeste 1 917.8 -2.3 74
2019-09-10 03:00:00 16.8 4 Sur 12 Noroeste 0 917.8 -2.9 59
2019-09-10 02:00:00 16.5 8 Norte 11 Norte 0 919.1 -2 53
2019-09-10 01:00:00 17.5 0 Calma 10 Norte 0 920.1 -0.9 50
2019-09-10 00:00:00 17 8 Norte 10 Noroeste 0 920.7 0.1 45
2019-09-09 23:00:00 18.2 4 Sudeste 19 Norte 0 921.1 0.8 41
2019-09-09 22:00:00 17.9 10 Norte 15 Sur 0 921 0.4 43
2019-09-09 21:00:00 19.3 10 Oeste 13 Oeste 0 920.6 -0.5 35
2019-09-09 20:00:00 20 3 Nordeste 12 Sudoeste 0 920.3 -1 36
2019-09-09 19:00:00 21.7 7 Sudoeste 26 Sudoeste 0 920.6 -1.3 29
2019-09-09 18:00:00 23 15 Sudoeste 33 Sur 0 921.1 -1.7 27
2019-09-09 17:00:00 24.6 17 Sudoeste 36 Sudoeste 0 921.3 -2.4 25
2019-09-09 16:00:00 25.2 15 Sudoeste 30 Sudoeste 0 921.9 -2.6 22
2019-09-09 15:00:00 24.9 17 Sudoeste 28 Sudoeste 0 922.8 -2.3 20
2019-09-09 14:00:00 23.6 12 Sudoeste 28 Sudoeste 0 923.7 -1.9 29
2019-09-09 13:00:00 21.9 8 Sur 19 Sur 0 924.5 -1 34
2019-09-09 12:00:00 19.8 8 Sur 18 Sur 0 925.1 -0.3 44
2019-09-09 11:00:00 18.3 7 Sur 12 Sur 0 925.6 0.3 54
2019-09-09 10:00:00 15.9 4 Sur 8 Sur 0 925.5 0.1 65
2019-09-09 09:00:00 14.1 5 Sur 8 Este 0 925.4 0.3 73
2019-09-09 08:00:00 12 5 Norte 12 Norte 0 925.3 -0.1 87
2019-09-09 07:00:00 11.7 3 Noroeste 8 Sur 0 925.4 -0.3 85
2019-09-09 06:00:00 11.7 7 Noroeste 11 Norte 0 925.1 -0.9 86
2019-09-09 05:00:00 12.6 3 Norte 12 Norte 0 925.4 -0.8 81
2019-09-09 04:00:00 12.7 4 Noroeste 11 Norte 0 925.7 -0.6 79
2019-09-09 03:00:00 13.9 6 Noroeste 13 Noroeste 0 926 -0.1 74
2019-09-09 02:00:00 13.1 10 Noroeste 12 Noroeste 0 926.2 0.2 73
2019-09-09 01:00:00 14 4 Noroeste 10 Sudoeste 0 926.3 0.8 63
2019-09-09 00:00:00 14.4 5 Noroeste 10 Sur 0 926.1 1.2 56
2019-09-08 23:00:00 16.8 3 Sudoeste 11 Sur 0 926 1.8 44
2019-09-08 22:00:00 18.8 13 Oeste 20 Oeste 0 925.5 1.6 37
2019-09-08 21:00:00 19.5 12 Oeste 15 Oeste 0 924.9 0.9 36
2019-09-08 20:00:00 20.8 10 Oeste 17 Sudoeste 0 924.2 0 34
2019-09-08 19:00:00 23.1 13 Oeste 28 Sudoeste 0 923.9 -0.5 30
2019-09-08 18:00:00 24 13 Sudoeste 31 Oeste 0 924 -0.8 30
2019-09-08 17:00:00 23.9 18 Sudoeste 29 Sudoeste 0 924.2 -0.7 31
2019-09-08 16:00:00 24.1 16 Sudoeste 32 Sudoeste 0 924.4 -0.7 31
2019-09-08 15:00:00 23.7 17 Sudoeste 33 Sur 0 924.8 -1 31
2019-09-08 14:00:00 23 18 Sur 30 Sur 0 924.9 -1.3 32
2019-09-08 13:00:00 21.3 10 Sur 22 Sur 0 925.1 -1.4 37
2019-09-08 12:00:00 19.1 9 Sur 17 Sur 0 925.8 -0.5 42
2019-09-08 11:00:00 17.1 7 Sur 12 Sur 0 926.2 0 51
2019-09-08 10:00:00 15.4 4 Sur 8 Sur 0 926.5 0.4 52
2019-09-08 09:00:00 14.5 3 Este 6 Nordeste 0 926.3 0.3 54
2019-09-08 08:00:00 10.8 4 Oeste 6 Norte 0 926.2 -0.2 65
2019-09-08 07:00:00 11.4 0 Calma 6 Norte 0 926.1 -0.7 62
2019-09-08 06:00:00 11.2 3 Norte 8 Norte 0 926 -1.1 62
2019-09-08 05:00:00 11.9 5 Norte 11 Norte 0 926.4 -0.8 58
2019-09-08 04:00:00 12.6 8 Norte 15 Norte 0 926.8 -0.5 56
2019-09-08 03:00:00 12.3 7 Nordeste 10 Norte 0 927.1 -0.5 57
2019-09-08 02:00:00 14.2 2 Noroeste 13 Norte 0 927.2 -0.2 50
2019-09-08 01:00:00 14.4 9 Noroeste 13 Norte 0 927.3 0.2 50
2019-09-08 00:00:00 14.2 7 Norte 10 Norte 0 927.6 1.5 52
2019-09-07 23:00:00 15.9 10 Noroeste 13 Noroeste 0 927.4 1.6 46
2019-09-07 22:00:00 17.2 6 Noroeste 26 Oeste 0 927.1 1.4 39
2019-09-07 21:00:00 19 20 Oeste 28 Oeste 0 926.1 0.4 33
2019-09-07 20:00:00 20 12 Oeste 28 Sudoeste 0 925.8 -0.1 30
2019-09-07 19:00:00 22.6 16 Sudoeste 27 Sudoeste 0 925.7 -0.7 26
2019-09-07 18:00:00 23.6 18 Sudoeste 31 Sudoeste 0 925.7 -1.3 26
2019-09-07 17:00:00 24.8 20 Sur 31 Sur 0 925.9 -1.7 25
2019-09-07 16:00:00 24.5 19 Sur 31 Sudoeste 0 926.4 -1.5 22
2019-09-07 15:00:00 24.4 13 Sur 25 Sur 0 927 -1.7 21
2019-09-07 14:00:00 22.8 12 Sur 21 Sur 0 927.6 -1.3 23
2019-09-07 13:00:00 20.9 9 Sur 18 Sur 0 927.9 -1.1 30
2019-09-07 12:00:00 19.1 8 Sur 15 Sur 0 928.7 -0.3 33
2019-09-07 11:00:00 16.8 6 Sur 14 Sur 0 928.9 0.3 43
2019-09-07 10:00:00 15.1 4 Sur 8 Sur 0 929 0.7 44
2019-09-07 09:00:00 13.8 3 Sur 7 Sur 0 929 0.9 43
2019-09-07 08:00:00 11.1 2 Oeste 6 Noroeste 0 928.6 0.2 48
2019-09-07 07:00:00 10.2 2 Norte 6 Norte 0 928.3 -0.3 52
2019-09-07 06:00:00 9.8 6 Norte 8 Noroeste 0 928.1 -0.5 53
2019-09-07 05:00:00 12.2 0 Calma 6 Norte 0 928.4 -0.3 43
2019-09-07 04:00:00 12.9 2 Nordeste 11 Norte 0 928.6 0.2 41
2019-09-07 03:00:00 13.4 0 Calma 10 Norte 0 928.6 0.7 40
2019-09-07 02:00:00 13.9 8 Norte 16 Norte 0 928.7 0.9 40
2019-09-07 01:00:00 14.9 6 Norte 21 Norte 0 928.4 0.9 36
2019-09-07 00:00:00 15.7 13 Norte 22 Norte 0 927.9 1 37
2019-09-06 23:00:00 16.9 12 Norte 18 Norte 0 927.8 1.5 32
2019-09-06 22:00:00 16.9 11 Norte 18 Nordeste 0 927.5 1.3 36
2019-09-06 21:00:00 17.3 5 Norte 16 Noroeste 0 926.9 0.7 36
2019-09-06 20:00:00 19.7 13 Noroeste 24 Oeste 0 926.3 0 30
2019-09-06 19:00:00 22.7 15 Oeste 33 Sudoeste 0 926.2 -0.5 24
2019-09-06 18:00:00 23.5 21 Sudoeste 31 Sudoeste 0 926.2 -0.8 22
2019-09-06 17:00:00 23.8 19 Sudoeste 34 Sudoeste 0 926.3 -1 22
2019-09-06 16:00:00 24.4 14 Sudoeste 30 Oeste 0 926.7 -0.7 21
2019-09-06 15:00:00 23.5 18 Sudoeste 36 Sur 0 927 -0.7 22
2019-09-06 14:00:00 22.9 18 Sudoeste 32 Sur 0 927.3 -1 22
2019-09-06 13:00:00 21.3 11 Sur 21 Sur 0 927.4 -0.7 24
2019-09-06 12:00:00 19 9 Sur 19 Sur 0 927.7 -0.4 30
2019-09-06 11:00:00 16.9 7 Sudeste 12 Sur 0 928.3 0.4 34
2019-09-06 10:00:00 15.2 4 Sur 9 Sur 0 928.1 0.3 42
2019-09-06 09:00:00 14 3 Sudeste 8 Noroeste 0 928.1 0.2 41
2019-09-06 08:00:00 11.3 3 Noroeste 9 Norte 0 927.9 0.2 47
2019-09-06 07:00:00 10 8 Noroeste 13 Noroeste 0 927.8 0.3 49
2019-09-06 06:00:00 12.1 5 Oeste 7 Sur 0 927.9 0.3 42
2019-09-06 05:00:00 12.4 4 Sur 11 Noroeste 0 927.7 0 40
2019-09-06 04:00:00 12.9 4 Sudoeste 9 Norte 0 927.5 -0.4 40
2019-09-06 03:00:00 13.8 6 Noroeste 28 Norte 0 927.6 0 38
2019-09-06 02:00:00 15 15 Nordeste 35 Nordeste 0 927.7 0.3 37
2019-09-06 01:00:00 15.6 13 Nordeste 32 Nordeste 0 927.9 0.4 35
2019-09-06 00:00:00 16.2 16 Norte 32 Nordeste 0 927.6 1.2 33
2019-09-05 23:00:00 16.9 25 Nordeste 43 Nordeste 0 927.4 1.6 32
2019-09-05 22:00:00 17 12 Nordeste 26 Nordeste 0 927.5 2.2 32
2019-09-05 21:00:00 18.1 21 Nordeste 35 Nordeste 0 926.4 1.4 31
2019-09-05 20:00:00 19.8 21 Nordeste 36 Nordeste 0 925.8 0.7 29
2019-09-05 19:00:00 21.2 18 Nordeste 31 Nordeste 0 925.3 -0.2 27
2019-09-05 18:00:00 22.4 12 Nordeste 20 Nordeste 0 925 -0.8 25
2019-09-05 17:00:00 23.3 10 Sudeste 25 Sur 0 925.1 -0.8 41
2019-09-05 16:00:00 24.2 14 Sudeste 23 Sur 0 925.5 -0.8 39
2019-09-05 15:00:00 25.4 13 Sur 28 Sur 0 925.8 -0.9 36
2019-09-05 14:00:00 25.6 9 Sur 24 Sudoeste 0 925.9 -0.8 33
2019-09-05 13:00:00 24.3 9 Sur 20 Sur 0 926.3 -0.4 36
2019-09-05 12:00:00 22.2 7 Sur 14 Sur 0 926.7 0.1 47
2019-09-05 11:00:00 19.8 6 Sur 10 Sur 0 926.7 0.3 58
2019-09-05 10:00:00 18.5 4 Sur 8 Sur 0 926.7 0.8 61
2019-09-05 09:00:00 16.7 4 Sur 7 Sur 0 926.6 1.1 69
2019-09-05 08:00:00 14 4 Norte 7 Norte 0 926.4 0.9 78
2019-09-05 07:00:00 14.6 3 Noroeste 7 Norte 0 925.9 0.3 73
2019-09-05 06:00:00 15.2 2 Sudoeste 5 Sur 0 925.5 -0.5 72
2019-09-05 05:00:00 16.3 0 Calma 6 Oeste 0 925.5 -0.6 62
2019-09-05 04:00:00 16.9 4 Oeste 7 Sudoeste 0 925.6 -0.7 60
2019-09-05 03:00:00 18.8 3 Sudoeste 15 Norte 0 926 -0.2 54
2019-09-05 02:00:00 18.1 13 Norte 16 Norte 0 926.1 -0.2 58
2019-09-05 01:00:00 18.8 6 Sudoeste 14 Norte 0 926.3 0.2 58
2019-09-05 00:00:00 20.2 8 Norte 12 Norte 0 926.2 0.6 50
2019-09-04 23:00:00 20.4 3 Norte 14 Norte 0 926.3 1 50
2019-09-04 22:00:00 21.3 5 Nordeste 23 Noroeste 0 926.1 0.7 46
2019-09-04 21:00:00 23.3 15 Oeste 22 Oeste 0 925.6 0 40
2019-09-04 20:00:00 24.7 11 Oeste 21 Sudoeste 0 925.3 -0.4 35
2019-09-04 19:00:00 27.4 16 Sudoeste 25 Sudoeste 0 925.4 -0.8 28
2019-09-04 18:00:00 28.9 12 Sudoeste 31 Sudoeste 0 925.6 -0.8 25
2019-09-04 17:00:00 29 13 Sudoeste 30 Sur 0 925.7 -1.3 26
2019-09-04 16:00:00 29.2 14 Sudoeste 32 Sudoeste 0 926.2 -1.5 24
2019-09-04 15:00:00 28.8 16 Sur 35 Sudoeste 0 926.4 -1.9 27
2019-09-04 14:00:00 27.4 17 Sur 25 Sur 0 927 -1.7 33
2019-09-04 13:00:00 25.4 10 Sur 20 Sur 0 927.7 -1.1 40
2019-09-04 12:00:00 22.9 6 Sur 14 Sur 0 928.3 -0.2 50
2019-09-04 11:00:00 21 4 Sur 9 Sur 0 928.7 0.1 57
2019-09-04 10:00:00 18.5 4 Sur 8 Sur 0 928.8 0.3 64
2019-09-04 09:00:00 17.8 0 Calma 6 Sur 0 928.5 0.1 64
2019-09-04 08:00:00 14.8 0 Calma 10 Norte 0 928.6 -0.2 72
2019-09-04 07:00:00 13.5 4 Nordeste 5 Nordeste 0 928.5 -0.5 77
2019-09-04 06:00:00 15.5 4 Oeste 6 Oeste 0 928.4 -1 68
2019-09-04 05:00:00 14.3 5 Norte 10 Noroeste 0 928.8 -1 72
2019-09-04 04:00:00 16.4 3 Oeste 11 Norte 0 929 -0.9 64
2019-09-04 03:00:00 16.4 12 Norte 15 Norte 0 929.4 -0.4 64
2019-09-04 02:00:00 17.8 4 Sudoeste 6 Sudoeste 0 929.8 0.3 59
2019-09-04 01:00:00 17.7 2 Nordeste 5 Norte 0 929.9 0.6 60
2019-09-04 00:00:00 18.9 3 Sur 15 Noroeste 0 929.8 0.9 55
2019-09-03 23:00:00 18.9 9 Norte 13 Norte 0 929.5 1.2 54
2019-09-03 22:00:00 19.1 8 Norte 13 Norte 0 929.3 1 54
2019-09-03 21:00:00 20.2 8 Norte 11 Norte 0 928.9 0.8 51
2019-09-03 20:00:00 23.2 8 Noroeste 19 Sudoeste 0 928.3 0.1 44
2019-09-03 19:00:00 25.9 13 Sur 22 Sur 0 928.3 -0.1 35
2019-09-03 18:00:00 26.8 18 Sur 24 Sur 0 928.1 -0.6 32
2019-09-03 17:00:00 27.9 18 Sur 28 Sur 0 928.2 -0.9 28
2019-09-03 16:00:00 28 13 Sur 29 Sur 0 928.4 -1.1 30
2019-09-03 15:00:00 26.9 8 Sur 19 Sur 0 928.7 -1.1 32
2019-09-03 14:00:00 25.4 10 Sur 17 Sur 0 929.1 -0.9 33
2019-09-03 13:00:00 23.3 9 Sur 18 Sur 0 929.5 -0.7 37
2019-09-03 12:00:00 21.6 6 Sur 14 Sur 0 929.8 -0.2 40
2019-09-03 11:00:00 20.1 3 Sudoeste 12 Sur 0 930 0.1 43
2019-09-03 10:00:00 17.7 5 Sur 9 Sur 0 930.2 0.7 48
2019-09-03 09:00:00 16.7 4 Sudeste 6 Sudeste 0 930 0.5 47
2019-09-03 08:00:00 13.2 2 Este 8 Oeste 0 929.9 0.5 62
2019-09-03 07:00:00 13.6 3 Sudeste 6 Norte 0 929.5 0.3 54
2019-09-03 06:00:00 13.7 6 Oeste 9 Norte 0 929.5 0.1 52
2019-09-03 05:00:00 14.3 4 Sudeste 6 Sudeste 0 929.4 0.1 49
2019-09-03 04:00:00 15.7 5 Este 16 Nordeste 0 929.2 0.2 46
2019-09-03 03:00:00 17.2 3 Sur 17 Norte 0 929.4 0.5 39
2019-09-03 02:00:00 18.2 9 Norte 17 Norte 0 929.3 0.7 37
2019-09-03 01:00:00 18.3 13 Norte 21 Norte 0 929 1 39
2019-09-03 00:00:00 18.2 5 Norte 12 Nordeste 0 928.9 1.8 47
2019-09-02 23:00:00 19.9 5 Norte 10 Nordeste 0 928.6 2.1 51
2019-09-02 22:00:00 20.2 3 Este 19 Oeste 0 928 1.7 52
2019-09-02 21:00:00 21.5 13 Oeste 19 Oeste 0 927.1 0.9 52
2019-09-02 20:00:00 22.5 9 Sudoeste 22 Sudoeste 0 926.5 0.1 53
2019-09-02 19:00:00 24.6 14 Oeste 24 Sudoeste 0 926.3 -0.3 45
2019-09-02 18:00:00 25 17 Sudoeste 31 Sudoeste 0 926.2 -0.6 46
2019-09-02 17:00:00 24.3 20 Sudoeste 30 Sudoeste 0 926.4 -0.7 47
2019-09-02 16:00:00 24.3 18 Sudoeste 30 Sudoeste 0 926.6 -0.5 48
2019-09-02 15:00:00 22.7 9 Sur 25 Sur 0 926.8 -0.7 54
2019-09-02 14:00:00 23.8 15 Sur 25 Sur 0 927.1 -0.3 55
2019-09-02 13:00:00 22.5 12 Sur 22 Sur 0 927.1 0 59
2019-09-02 12:00:00 20.6 9 Sur 19 Sur 0 927.5 0.8 68
2019-09-02 11:00:00 18.8 7 Sur 13 Sur 0 927.4 1.5 75
2019-09-02 10:00:00 17.3 2 Nordeste 9 Sudeste 0 927.1 1.6 81
2019-09-02 09:00:00 16.4 3 Este 8 Sur 0 926.7 1.3 86
2019-09-02 08:00:00 16.7 4 Oeste 11 Norte 0 925.9 0.5 89
2019-09-02 07:00:00 16.5 5 Norte 16 Sur 0 925.5 0.3 91
2019-09-02 06:00:00 18 6 Este 9 Norte 0 925.4 0.3 89
2019-09-02 05:00:00 18.4 6 Sur 8 Sur 0 925.4 0 83
2019-09-02 04:00:00 19.1 3 Noroeste 8 Norte 0 925.2 0.2 82
2019-09-02 03:00:00 19.4 3 Sur 9 Sudeste 0 925.1 -0.2 81
2019-09-02 02:00:00 20.7 4 Sur 12 Norte 0 925.4 0.2 74
2019-09-02 01:00:00 19 12 Norte 13 Norte 0 925 0.1 73
2019-09-02 00:00:00 20 3 Nordeste 9 Sur 0 925.3 1.3 74
2019-09-01 23:00:00 21.8 4 Sudoeste 6 Sur 0 925.2 2 56
2019-09-01 22:00:00 22 2 Sudeste 13 Noroeste 0 924.9 1.9 54
2019-09-01 21:00:00 22.1 8 Noroeste 17 Sudoeste 0 924 1.1 52
2019-09-01 20:00:00 23.5 10 Oeste 24 Oeste 0 923.2 0.1 45
2019-09-01 19:00:00 24.1 10 Oeste 19 Sudoeste 0 923 -0.3 45
2019-09-01 18:00:00 23.6 9 Oeste 35 Sudoeste 1.4 922.9 -1 64
2019-09-01 17:00:00 26.8 15 Sur 27 Sur 0 923.1 -1.2 39
2019-09-01 16:00:00 28.6 10 Sur 18 Sur 0 923.3 -1.5 37
2019-09-01 15:00:00 27.2 10 Sur 15 Sur 0 923.9 -1.1 37
2019-09-01 14:00:00 26.6 6 Sur 13 Sudeste 0 924.3 -0.9 41
2019-09-01 13:00:00 24.9 8 Sur 14 Sur 0 924.8 -0.2 50
2019-09-01 12:00:00 22 3 Sudoeste 12 Sur 0 925 0.2 62
2019-09-01 11:00:00 20.2 4 Sur 8 Sur 0 925.2 0.5 66
2019-09-01 10:00:00 19.8 3 Sudoeste 7 Sur 0 925 0.3 63
2019-09-01 09:00:00 17.4 2 Sur 7 Sur 0 924.8 0.3 71
2019-09-01 08:00:00 17 0 Calma 6 Sudoeste 0 924.7 -0.3 67
2019-09-01 07:00:00 17.3 2 Sudoeste 8 Norte 0 924.7 -0.7 67
2019-09-01 06:00:00 17.3 4 Sudoeste 8 Norte 0 924.5 -1 69
2019-09-01 05:00:00 18.1 0 Calma 9 Norte 0 925 -0.5 60
2019-09-01 04:00:00 18.3 2 Sudoeste 9 Norte 0 925.4 0.1 63
2019-09-01 03:00:00 18.8 3 Oeste 8 Sudoeste 0 925.5 0.3 60
2019-09-01 02:00:00 19 6 Norte 12 Norte 0 925.5 0.2 58
2019-09-01 01:00:00 20.2 7 Sudoeste 10 Sudoeste 0 925.3 -0.5 55
2019-09-01 00:00:00 20.3 4 Sudoeste 19 Nordeste 0 925.2 -0.7 54
2019-08-31 23:00:00 21.2 6 Norte 17 Nordeste 0 925.3 0 49
2019-08-31 22:00:00 22.7 3 Oeste 21 Nordeste 0 925.8 0.8 44
2019-08-31 21:00:00 21.6 11 Norte 22 Nordeste 0 925.9 1.2 51
2019-08-31 20:00:00 21.9 7 Norte 15 Sudeste 0 925.3 0.9 53
2019-08-31 19:00:00 24.5 9 Sudeste 21 Este 0 925 0.6 42
2019-08-31 18:00:00 26.1 7 Norte 32 Noroeste 0 924.7 -0.7 34
2019-08-31 17:00:00 26.2 19 Noroeste 38 Noroeste 0 924.4 -1.5 30
2019-08-31 16:00:00 26.9 16 Noroeste 35 Noroeste 0 924.4 -2.1 35
2019-08-31 15:00:00 26.7 10 Noroeste 20 Noroeste 0 925.4 -1.6 41
2019-08-31 14:00:00 26.9 6 Sur 13 Sur 0 925.9 -1.3 48
2019-08-31 13:00:00 24.9 8 Sur 13 Sur 0 926.5 -0.9 57
2019-08-31 12:00:00 22.5 6 Sur 11 Sur 0 927 -0.3 67
2019-08-31 11:00:00 20.3 5 Sur 10 Sur 0 927.2 0 73
2019-08-31 10:00:00 18.3 5 Sur 7 Sur 0 927.4 0.3 82
2019-08-31 09:00:00 18.1 0 Calma 4 Sur 0 927.3 0.3 73
2019-08-31 08:00:00 15 2 Oeste 5 Oeste 0 927.2 -0.2 86
2019-08-31 07:00:00 14.7 3 Sur 5 Sudoeste 0 927.1 -0.8 85
2019-08-31 06:00:00 14.8 3 Noroeste 5 Norte 0 927 -1.3 83
2019-08-31 05:00:00 15 4 Sudoeste 6 Norte 0 927.4 -1.2 84
2019-08-31 04:00:00 14.7 4 Norte 6 Norte 0 927.9 -0.9 84
2019-08-31 03:00:00 15.2 0 Calma 8 Norte 0 928.3 -0.7 83
2019-08-31 02:00:00 14.8 5 Noroeste 7 Norte 0 928.6 -0.8 82
2019-08-31 01:00:00 16.2 2 Sudoeste 7 Oeste 0 928.8 -0.6 78
2019-08-31 00:00:00 16.7 8 Oeste 14 Noroeste 0 929 0.4 72
2019-08-30 23:00:00 15.8 3 Norte 12 Noroeste 0 929.4 0.8 79
2019-08-30 22:00:00 16.8 6 Oeste 18 Norte 0 929.4 0.3 77
2019-08-30 21:00:00 17.2 10 Noroeste 21 Sur 0 928.6 1.2 75
2019-08-30 20:00:00 17.9 17 Norte 37 Norte 10 928.6 1.3 72
2019-08-30 19:00:00 22.8 12 Norte 42 Oeste 0 929.1 1.5 56
2019-08-30 18:00:00 25.6 28 Oeste 43 Oeste 1 927.4 -1 46
2019-08-30 17:00:00 31 8 Sudoeste 24 Sur 0 927.3 -2.1 25
2019-08-30 16:00:00 32 14 Sur 25 Sur 0 927.6 -2.5 25
2019-08-30 15:00:00 32.1 12 Sur 25 Sudeste 0 928.4 -2 27
2019-08-30 14:00:00 30.1 12 Sudeste 21 Sur 0 929.4 -1.3 29
2019-08-30 13:00:00 28.9 6 Sur 14 Sudoeste 0 930.1 -0.5 37
2019-08-30 12:00:00 27 7 Sur 11 Sur 0 930.4 -0.2 46
2019-08-30 11:00:00 23.6 5 Sur 10 Sur 0 930.7 0.2 54
2019-08-30 10:00:00 21.9 4 Sur 9 Sur 0 930.6 0.5 56
2019-08-30 09:00:00 20.4 4 Sudeste 6 Sudeste 0 930.6 0.9 60
2019-08-30 08:00:00 18.2 0 Calma 5 Sur 0 930.5 0.8 69
2019-08-30 07:00:00 16.8 0 Calma 4 Norte 0 930.1 0.3 70
2019-08-30 06:00:00 17.8 2 Sur 4 Sur 0 929.7 -0.1 66
2019-08-30 05:00:00 18.3 0 Calma 6 Oeste 0 929.7 -0.1 64
2019-08-30 04:00:00 17.9 5 Noroeste 7 Norte 0 929.8 0.1 65
2019-08-30 03:00:00 19.4 3 Sur 8 Sudoeste 0 929.8 0.1 57
2019-08-30 02:00:00 19.7 7 Noroeste 13 Noroeste 0 929.8 0 56
2019-08-30 01:00:00 20.2 4 Norte 10 Sudoeste 0 929.7 0.1 55
2019-08-30 00:00:00 22.5 5 Noroeste 16 Norte 0 929.7 0.7 48
2019-08-29 23:00:00 22 11 Noroeste 13 Noroeste 0 929.8 2.1 50
2019-08-29 22:00:00 22.5 6 Nordeste 32 Nordeste 0 929.6 2.2 44
2019-08-29 21:00:00 24.2 21 Este 42 Este 0 929 1.4 43
2019-08-29 20:00:00 26.6 10 Noroeste 26 Oeste 0 927.7 0.2 45
2019-08-29 19:00:00 28.9 15 Oeste 32 Oeste 0 927.4 -0.4 34
2019-08-29 18:00:00 30.4 20 Sudoeste 30 Sudoeste 0 927.6 -0.9 32
2019-08-29 17:00:00 31.7 9 Sudoeste 26 Sur 0 927.5 -1.3 29
2019-08-29 16:00:00 30.1 8 Oeste 23 Sudoeste 0 927.8 -1.2 29
2019-08-29 15:00:00 29.3 10 Oeste 26 Sudoeste 0 928.5 -0.8 33
2019-08-29 14:00:00 28.8 8 Sur 20 Sur 0 928.8 -0.5 40
2019-08-29 13:00:00 27.2 11 Sur 18 Sur 0 929 -0.4 43
2019-08-29 12:00:00 25.8 8 Sur 14 Sur 0 929.3 0.1 49
2019-08-29 11:00:00 24.3 5 Sur 14 Sur 0 929.3 0.4 56
2019-08-29 10:00:00 22.1 4 Sur 9 Sur 0 929.4 0.7 62
2019-08-29 09:00:00 20 3 Sur 6 Sur 0 929.2 0.8 67
2019-08-29 08:00:00 17.5 3 Norte 4 Sur 0 928.9 0.9 78
2019-08-29 07:00:00 18 2 Sur 9 Norte 0 928.7 0.8 73
2019-08-29 06:00:00 17.6 7 Norte 9 Norte 0 928.4 0.5 75
2019-08-29 05:00:00 19.8 3 Sudoeste 13 Norte 0 928 0.1 69
2019-08-29 04:00:00 18.8 12 Noroeste 14 Noroeste 0 927.9 0.1 71
2019-08-29 03:00:00 20.1 3 Noroeste 6 Nordeste 0 927.9 0.2 67
2019-08-29 02:00:00 20.6 3 Sur 10 Norte 0 927.9 0.7 66
2019-08-29 01:00:00 21 6 Norte 7 Norte 0 927.8 1.2 64
2019-08-29 00:00:00 22.1 3 Oeste 8 Sudeste 0 927.7 1.8 58
2019-08-28 23:00:00 23.1 5 Sudeste 21 Norte 0 927.2 1.8 56
2019-08-28 22:00:00 23.4 13 Norte 22 Norte 0 926.6 1.3 53
2019-08-28 21:00:00 23.3 8 Noroeste 17 Noroeste 0 925.9 0.5 55
2019-08-28 20:00:00 25.9 12 Noroeste 20 Noroeste 0 925.4 0.1 48
2019-08-28 19:00:00 27.7 13 Sudoeste 28 Oeste 0 925.3 -0.2 36
2019-08-28 18:00:00 29.1 13 Sudoeste 30 Sudoeste 0 925.4 -0.4 33
2019-08-28 17:00:00 30.2 12 Sudoeste 26 Sur 0 925.3 -0.9 32
2019-08-28 16:00:00 29.8 13 Sudoeste 27 Sur 0 925.5 -0.9 30
2019-08-28 15:00:00 28.2 14 Sur 23 Sur 0 925.8 -0.9 35
2019-08-28 14:00:00 27.4 13 Sur 24 Sur 0 926.2 -0.4 40
2019-08-28 13:00:00 26 10 Sur 20 Sur 0 926.4 -0.2 44
2019-08-28 12:00:00 23.9 8 Sur 17 Sur 0 926.7 0.1 54
2019-08-28 11:00:00 21.8 6 Sur 13 Sur 0 926.6 0.1 63
2019-08-28 10:00:00 20.9 4 Sur 9 Sur 0 926.6 0.5 70
2019-08-28 09:00:00 19.1 3 Nordeste 5 Norte 0 926.6 0.5 72
2019-08-28 08:00:00 15.9 3 Sudeste 9 Norte 0 926.5 0.2 85
2019-08-28 07:00:00 15.9 3 Sudoeste 8 Norte 0 926.1 -0.3 86
2019-08-28 06:00:00 15.5 0 Calma 5 Noroeste 0 926.1 -0.2 84
2019-08-28 05:00:00 15.7 5 Norte 10 Norte 0 926.3 -0.3 84
2019-08-28 04:00:00 16.6 2 Sudoeste 11 Noroeste 0 926.4 0.1 81
2019-08-28 03:00:00 16.7 10 Norte 12 Norte 0 926.3 0 83
2019-08-28 02:00:00 18 3 Sudeste 9 Sudeste 0 926.6 0.2 75
2019-08-28 01:00:00 18.3 8 Noroeste 14 Noroeste 0 926.3 0.1 80
2019-08-28 00:00:00 19.2 8 Sudeste 11 Norte 0 926.3 0.8 76
2019-08-27 23:00:00 19.9 9 Norte 14 Nordeste 0 926.4 1.3 70
2019-08-27 22:00:00 19.1 4 Nordeste 9 Este 0 926.2 1.4 75
2019-08-27 21:00:00 20.1 4 Sur 24 Norte 0 925.5 0.9 67
2019-08-27 20:00:00 21 14 Norte 23 Noroeste 0 925.1 0.3 67
2019-08-27 19:00:00 23.4 6 Sur 24 Sur 0 924.8 -0.1 52
2019-08-27 18:00:00 24.1 18 Sur 36 Sur 0 924.6 -0.9 51
2019-08-27 17:00:00 24.9 22 Sudeste 39 Sur 0 924.8 -1.2 43
2019-08-27 16:00:00 26.5 19 Sur 31 Sur 0 924.9 -1.4 38
2019-08-27 15:00:00 26.6 19 Sur 37 Sur 0 925.5 -0.8 36
2019-08-27 14:00:00 25.7 25 Sur 35 Sur 0 926 0.2 37
2019-08-27 13:00:00 26.7 8 Sudeste 20 Sudeste 0 926.3 1 38
2019-08-27 12:00:00 24.4 9 Sur 17 Sur 0 926.3 1.1 52
2019-08-27 11:00:00 21.8 5 Sudoeste 14 Sur 0 925.8 -0.6 65
2019-08-27 10:00:00 19.9 5 Sur 18 Sudeste 0 925.3 -1 73
2019-08-27 09:00:00 17.7 5 Sur 32 Nordeste 0.2 925.2 -0.8 78
2019-08-27 08:00:00 17 7 Sur 19 Norte 0 926.4 -0.1 79
2019-08-27 07:00:00 17.3 9 Norte 20 Norte 1 926.3 -0.1 75
2019-08-27 06:00:00 20.4 9 Norte 18 Noroeste 0 926 0.6 55
2019-08-27 05:00:00 20.9 3 Sudoeste 20 Sudoeste 0 926.5 0.5 50
2019-08-27 04:00:00 20.8 11 Oeste 27 Sudoeste 0 926.4 -0.6 58
2019-08-27 03:00:00 22.2 3 Noroeste 40 Nordeste 0 925.4 -1 53
2019-08-27 02:00:00 20.5 9 Nordeste 16 Norte 0 926 0.1 56
2019-08-27 01:00:00 19.6 10 Norte 14 Noroeste 0 927 1.3 64
2019-08-27 00:00:00 22.2 3 Sudeste 10 Sur 0 926.4 1.1 50
2019-08-26 23:00:00 21.8 5 Sudeste 12 Sudeste 0 925.9 1.3 47
2019-08-26 22:00:00 23.2 9 Sudeste 14 Sudeste 0 925.7 1.4 45
2019-08-26 21:00:00 23.3 5 Sudeste 20 Sur 0 925.3 0.3 41
2019-08-26 20:00:00 25.9 17 Sur 26 Sudeste 0 924.6 -1.2 35
2019-08-26 19:00:00 27.8 8 Este 17 Este 0 924.3 -2.4 24
2019-08-26 18:00:00 28.3 5 Este 17 Sudoeste 0 925 -1.9 23
2019-08-26 17:00:00 28.2 5 Oeste 21 Sudoeste 0 925.8 -1.2 24
2019-08-26 16:00:00 28.4 14 Sudoeste 28 Sudoeste 0 926.7 -0.2 22
2019-08-26 15:00:00 29.6 10 Sudoeste 22 Sudoeste 0 926.9 -0.3 24
2019-08-26 14:00:00 28.3 7 Sur 22 Sur 0 927 -0.4 28
2019-08-26 13:00:00 28.2 10 Sudoeste 17 Sur 0 926.9 -0.4 29
2019-08-26 12:00:00 27.3 8 Sur 13 Sur 0 927.2 0 38
2019-08-26 11:00:00 23.7 6 Sudoeste 10 Sudoeste 0 927.4 0.6 53
2019-08-26 10:00:00 21.9 2 Sudoeste 6 Sur 0 927.3 0.9 56
2019-08-26 09:00:00 21.6 3 Nordeste 5 Noroeste 0 927.2 0.6 53
2019-08-26 08:00:00 18.7 0 Calma 6 Nordeste 0 926.8 0 64
2019-08-26 07:00:00 18.4 0 Calma 5 Noroeste 0 926.4 -0.6 57
2019-08-26 06:00:00 18.6 3 Noroeste 5 Noroeste 0 926.6 -0.4 54
2019-08-26 05:00:00 19.3 3 Sur 10 Norte 0 926.8 -0.6 53
2019-08-26 04:00:00 20.3 2 Nordeste 8 Norte 0 927 -0.6 53
2019-08-26 03:00:00 20.6 6 Norte 10 Norte 0 927 -0.7 44
2019-08-26 02:00:00 20.6 6 Noroeste 12 Norte 0 927.4 -0.4 52
2019-08-26 01:00:00 21.2 5 Norte 10 Noroeste 0 927.6 0.3 50
2019-08-26 00:00:00 21.4 9 Noroeste 15 Este 0 927.7 1.2 48
2019-08-25 23:00:00 23.5 9 Este 18 Este 0 927.8 2.1 43
2019-08-25 22:00:00 22.7 2 Este 11 Sur 0 927.3 1.8 50
2019-08-25 21:00:00 24.3 9 Sur 30 Sur 0 926.5 1 43
2019-08-25 20:00:00 27.4 17 Sur 24 Sudoeste 0 925.7 -0.1 31
2019-08-25 19:00:00 29.8 11 Sur 19 Sur 0 925.5 -0.6 27
2019-08-25 18:00:00 30.7 11 Sudoeste 21 Sur 0 925.5 -0.9 25
2019-08-25 17:00:00 31 12 Sur 23 Sur 0 925.8 -1.1 23
2019-08-25 16:00:00 31.1 10 Sudeste 23 Sur 0 926.1 -1.3 22
2019-08-25 15:00:00 30.3 12 Sudeste 24 Sudeste 0 926.4 -1.7 27
2019-08-25 14:00:00 29.2 9 Sudeste 17 Sur 0 926.9 -1.5 29
2019-08-25 13:00:00 28.1 7 Sur 14 Sur 0 927.4 -1 36
2019-08-25 12:00:00 25.6 8 Sur 14 Sur 0 928.1 0 45
2019-08-25 11:00:00 23.4 6 Sur 10 Sur 0 928.4 0.5 53
2019-08-25 10:00:00 21.9 5 Sur 8 Sur 0 928.4 0.8 59
2019-08-25 09:00:00 20.7 2 Sudoeste 6 Nordeste 0 928.1 0.4 60
2019-08-25 08:00:00 17.7 4 Norte 6 Sur 0 927.9 0.1 74
2019-08-25 07:00:00 17.9 4 Sudoeste 6 Sudeste 0 927.6 -0.3 68
2019-08-25 06:00:00 18.2 3 Oeste 6 Norte 0 927.7 -0.1 68
2019-08-25 05:00:00 18.9 3 Sudeste 6 Este 0 927.8 -0.2 66
2019-08-25 04:00:00 19.2 3 Sudeste 9 Oeste 0 927.9 -0.2 63
2019-08-25 03:00:00 20 6 Noroeste 10 Norte 0 927.8 -0.2 64
2019-08-25 02:00:00 19.7 5 Noroeste 9 Noroeste 0 928 0.2 60
2019-08-25 01:00:00 21.3 6 Oeste 9 Oeste 0 928.1 0.8 57
2019-08-25 00:00:00 21.7 2 Nordeste 14 Sur 0 928 1.3 50
2019-08-24 23:00:00 23 9 Sudeste 15 Sudeste 0 927.8 1.2 45
2019-08-24 22:00:00 24.2 3 Nordeste 17 Oeste 0 927.3 0.8 39
2019-08-24 21:00:00 25.7 13 Noroeste 20 Oeste 0 926.7 0 37
2019-08-24 20:00:00 27.6 15 Oeste 24 Oeste 0 926.6 -0.2 33
2019-08-24 19:00:00 29 15 Sudoeste 26 Sudoeste 0 926.5 -0.8 31
2019-08-24 18:00:00 30.4 20 Sudoeste 31 Sudoeste 0 926.7 -0.7 30
2019-08-24 17:00:00 31.1 15 Sur 28 Sudoeste 0 926.8 -1.1 28
2019-08-24 16:00:00 30.1 15 Oeste 25 Oeste 0 927.3 -1.2 28
2019-08-24 15:00:00 30.7 13 Sudoeste 34 Sur 0 927.4 -1.5 29
2019-08-24 14:00:00 29 12 Sur 22 Sur 0 927.9 -1.2 35
2019-08-24 13:00:00 26.5 11 Sur 18 Sur 0 928.5 -0.5 41
2019-08-24 12:00:00 25.6 8 Sur 15 Sur 0 928.9 -0.1 48
2019-08-24 11:00:00 23.3 6 Sur 11 Sur 0 929.1 0.4 56
2019-08-24 10:00:00 22 5 Sur 9 Sur 0 929 0.3 63
2019-08-24 09:00:00 19.4 3 Sudoeste 5 Sudoeste 0 929 0.4 68
2019-08-24 08:00:00 18 5 Oeste 8 Norte 0 928.7 0 71
2019-08-24 07:00:00 17.2 3 Nordeste 5 Sur 0 928.7 0 76
2019-08-24 06:00:00 16.9 2 Nordeste 8 Norte 0 928.6 -0.2 74
2019-08-24 05:00:00 19 2 Norte 9 Noroeste 0 928.7 -0.3 71
2019-08-24 04:00:00 19.3 0 Calma 6 Noroeste 0 928.7 -0.2 66
2019-08-24 03:00:00 20.3 2 Sudoeste 10 Norte 0 928.8 0 62
2019-08-24 02:00:00 19.4 6 Noroeste 10 Noroeste 0 929 0.5 62
2019-08-24 01:00:00 19.8 9 Noroeste 12 Norte 0 928.9 0.8 63
2019-08-24 00:00:00 22.1 4 Oeste 10 Sudoeste 0 928.8 1.2 55
2019-08-23 23:00:00 22.3 4 Sur 10 Norte 0 928.5 1.2 45
2019-08-23 22:00:00 22.6 4 Norte 17 Sudoeste 0 928.1 0.8 45
2019-08-23 21:00:00 24.6 11 Sudoeste 16 Oeste 0 927.6 0.1 43
2019-08-23 20:00:00 27.2 7 Sudoeste 22 Sur 0 927.3 -0.4 36
2019-08-23 19:00:00 28.1 15 Sur 22 Sur 0 927.3 -0.7 32
2019-08-23 18:00:00 29.3 11 Sur 23 Sudoeste 0 927.5 -1.1 25
2019-08-23 17:00:00 29.8 12 Sur 23 Sur 0 927.7 -1.5 21
2019-08-23 16:00:00 30.1 14 Sur 28 Sur 0 928 -1.6 24
2019-08-23 15:00:00 28.6 12 Sur 30 Sur 0 928.6 -1.4 28
2019-08-23 14:00:00 28.3 9 Sur 21 Sur 0 929.2 -1.2 32
2019-08-23 13:00:00 26.9 10 Sur 17 Sur 0 929.6 -0.8 35
2019-08-23 12:00:00 24.5 7 Sur 15 Sur 0 930 -0.3 49
2019-08-23 11:00:00 22.3 8 Sur 14 Sur 0 930.4 0.4 57
2019-08-23 10:00:00 21.2 5 Sur 9 Sur 0 930.4 0.6 64
2019-08-23 09:00:00 18.4 3 Sudoeste 6 Nordeste 0 930.3 0.6 72
2019-08-23 08:00:00 16.9 2 Sudeste 6 Sudoeste 0 930 0 81
2019-08-23 07:00:00 15.7 3 Norte 10 Noroeste 0 929.8 -0.3 79
2019-08-23 06:00:00 16.4 6 Norte 9 Noroeste 0 929.7 -0.3 78
2019-08-23 05:00:00 18.1 2 Noroeste 5 Oeste 0 930 -0.1 73
2019-08-23 04:00:00 18.4 2 Sur 12 Norte 0 930.1 0.2 68
2019-08-23 03:00:00 18.7 11 Noroeste 14 Noroeste 0 930 0 69
2019-08-23 02:00:00 19.6 3 Oeste 8 Sudoeste 0 930.1 0.3 66
2019-08-23 01:00:00 18.9 7 Noroeste 9 Norte 0 929.9 0.5 64
2019-08-23 00:00:00 20.8 4 Oeste 13 Sudeste 0 930 1.5 56
2019-08-22 23:00:00 20.8 4 Oeste 7 Nordeste 0 929.8 1.9 51
2019-08-22 22:00:00 21.8 4 Este 16 Oeste 0 929.4 1.6 45
2019-08-22 21:00:00 23.1 14 Oeste 21 Oeste 0 928.5 0.5 39
2019-08-22 20:00:00 25.9 14 Oeste 22 Sudoeste 0 927.9 0 33
2019-08-22 19:00:00 27.7 12 Sudoeste 27 Sudoeste 0 927.8 -0.4 31
2019-08-22 18:00:00 28.2 13 Sudoeste 28 Sudoeste 0 928 -0.4 31
2019-08-22 17:00:00 28.3 14 Sudoeste 27 Sudoeste 0 927.9 -0.8 33
2019-08-22 16:00:00 28.3 16 Sudoeste 33 Sudoeste 0 928.2 -0.7 34
2019-08-22 15:00:00 28.2 12 Sudoeste 23 Sur 0 928.4 -1 35
2019-08-22 14:00:00 27.4 12 Sur 26 Sur 0 928.7 -0.8 37
2019-08-22 13:00:00 25.3 6 Sur 17 Sur 0 928.9 -0.7 50
2019-08-22 12:00:00 23.9 8 Sur 18 Sur 0 929.4 -0.1 54
2019-08-22 11:00:00 21.8 6 Sur 13 Sur 0 929.5 0.3 58
2019-08-22 10:00:00 19.5 6 Sur 10 Sur 0 929.6 0.9 71
2019-08-22 09:00:00 18.3 5 Sudoeste 9 Norte 0 929.5 1 90
2019-08-22 08:00:00 17.6 7 Norte 9 Norte 0 929.2 0.8 93
2019-08-22 07:00:00 16.7 5 Sudoeste 10 Norte 0 928.7 0.6 90
2019-08-22 06:00:00 17.3 3 Norte 5 Sudeste 0 928.5 0.2 91
2019-08-22 05:00:00 17 3 Sudoeste 8 Noroeste 0 928.4 -0.4 87
2019-08-22 04:00:00 17.9 3 Sur 12 Noroeste 0 928.1 -0.9 83
2019-08-22 03:00:00 18 9 Noroeste 12 Noroeste 0 928.3 -0.5 83
2019-08-22 02:00:00 17.7 8 Norte 9 Norte 0 928.8 0.1 82
2019-08-22 01:00:00 18.5 8 Noroeste 11 Noroeste 0 929 0.6 79
2019-08-22 00:00:00 19.4 5 Este 10 Norte 0 928.8 1.2 76
2019-08-21 23:00:00 19.8 3 Norte 19 Noroeste 0 928.7 1.5 74
2019-08-21 22:00:00 20.3 6 Noroeste 12 Noroeste 0 928.4 1.5 70
2019-08-21 21:00:00 21.2 9 Noroeste 20 Noroeste 0 927.6 0.7 66
2019-08-21 20:00:00 22.4 7 Noroeste 19 Oeste 0 927.2 0.8 65
2019-08-21 19:00:00 22.5 8 Sudeste 23 Sur 0 926.9 0 67
2019-08-21 18:00:00 24.6 17 Sur 26 Sur 0 926.9 -0.7 60
2019-08-21 17:00:00 27.6 10 Sudeste 22 Sudeste 0 926.4 -1.6 37
2019-08-21 16:00:00 26.1 14 Sur 22 Sur 0 926.9 -1.9 42
2019-08-21 15:00:00 26.2 9 Sur 19 Sur 0 927.6 -1.7 41
2019-08-21 14:00:00 24.5 10 Sur 18 Sur 0 928 -1.8 48
2019-08-21 13:00:00 23.2 5 Sudoeste 15 Sur 0 928.8 -1.2 51
2019-08-21 12:00:00 21 9 Sur 15 Sur 0 929.3 -0.8 54
2019-08-21 11:00:00 18.5 7 Sur 13 Sur 0 929.8 -0.2 63
2019-08-21 10:00:00 16.5 4 Sur 9 Sudeste 0 930 0.1 71
2019-08-21 09:00:00 14.8 2 Sur 5 Sur 0 930.1 0.3 75
2019-08-21 08:00:00 14 0 Calma 8 Noroeste 0 930 0.1 81
2019-08-21 07:00:00 12 3 Norte 6 Este 0 929.9 0 84
2019-08-21 06:00:00 12.7 3 Este 6 Oeste 0 929.8 -0.4 81
2019-08-21 05:00:00 12.6 3 Noroeste 8 Noroeste 0 929.9 -0.4 80
2019-08-21 04:00:00 13.3 7 Noroeste 11 Noroeste 0 929.9 -0.6 75
2019-08-21 03:00:00 14.6 0 Calma 7 Noroeste 0 930.2 -0.3 70
2019-08-21 02:00:00 14.9 4 Oeste 9 Norte 0 930.3 0.1 66
2019-08-21 01:00:00 14.3 8 Norte 12 Norte 0 930.5 0.6 67
2019-08-21 00:00:00 15.1 7 Noroeste 11 Noroeste 0 930.5 1.4 71